Time;durP1;ratioP1;P1;durP2;ratioP2;P2;SDS_P1;SDS_P2;PMS_P1;PMS_P2;Temp;Humidity;BMP_temperature;BMP_pressure;BME280_temperature;BME280_humidity;BME280_pressure;Samples;Min_cycle;Max_cycle;Signal;HPM_P1;HPM_P2
2023/12/15 00:02:20;;;;;;;19.83;10.50;;;;;;;5.45;100.00;102622.16;5114018;28;20011;-59
2023/12/15 00:04:46;;;;;;;15.65;9.15;;;;;;;5.52;100.00;102629.09;5114113;28;20016;-59
2023/12/15 00:07:13;;;;;;;26.55;12.48;;;;;;;5.52;100.00;102631.72;5114057;28;20031;-59
2023/12/15 00:09:39;;;;;;;18.15;12.07;;;;;;;5.51;100.00;102637.91;5113619;28;20020;-59
2023/12/15 00:12:04;;;;;;;25.05;13.15;;;;;;;5.54;100.00;102639.66;5095133;28;20031;-59
2023/12/15 00:14:30;;;;;;;21.73;12.77;;;;;;;5.51;100.00;102637.03;5113945;28;20103;-59
2023/12/15 00:16:55;;;;;;;26.80;14.65;;;;;;;5.50;100.00;102649.38;5113540;28;20475;-59
2023/12/15 00:19:20;;;;;;;19.77;12.98;;;;;;;5.52;100.00;102652.84;5113890;28;20026;-58
2023/12/15 00:21:46;;;;;;;20.63;12.82;;;;;;;5.50;100.00;102644.09;5112782;28;20023;-59
2023/12/15 00:24:11;;;;;;;23.23;13.70;;;;;;;5.49;100.00;102655.53;5112882;28;20429;-59
2023/12/15 00:26:37;;;;;;;25.55;13.48;;;;;;;5.49;100.00;102652.00;5110729;28;20031;-59
2023/12/15 00:29:03;;;;;;;24.65;14.13;;;;;;;5.53;100.00;102661.63;5113342;28;20028;-59
2023/12/15 00:31:31;;;;;;;25.05;14.95;;;;;;;5.56;100.00;102651.94;5113324;28;21193;-59
2023/12/15 00:33:57;;;;;;;24.25;14.10;;;;;;;5.63;100.00;102652.72;5113144;28;20035;-59
2023/12/15 00:36:22;;;;;;;24.92;14.25;;;;;;;5.52;100.00;102638.78;5095229;28;20016;-59
2023/12/15 00:38:47;;;;;;;29.25;15.82;;;;;;;5.52;100.00;102634.38;5113048;28;20023;-59
2023/12/15 00:41:13;;;;;;;26.05;15.20;;;;;;;5.55;100.00;102644.00;5112915;28;20047;-59
2023/12/15 00:43:38;;;;;;;32.50;14.38;;;;;;;5.60;100.00;102652.75;5113221;28;20069;-59
2023/12/15 00:46:08;;;;;;;23.90;14.38;;;;;;;5.59;100.00;102662.44;5113215;28;20027;-61
2023/12/15 00:48:34;;;;;;;29.20;14.02;;;;;;;5.59;100.00;102658.91;5110835;28;20028;-59
2023/12/15 00:50:59;;;;;;;33.17;15.93;;;;;;;5.58;100.00;102654.53;5112726;28;20084;-59
2023/12/15 00:53:25;;;;;;;29.30;15.85;;;;;;;5.61;100.00;102654.50;5112330;28;20051;-59
2023/12/15 00:55:53;;;;;;;27.33;15.20;;;;;;;5.54;100.00;102647.56;5112675;28;20035;-59
2023/12/15 00:58:20;;;;;;;28.15;15.23;;;;;;;5.63;100.00;102665.91;5112660;28;20528;-59
2023/12/15 01:00:46;;;;;;;30.52;16.00;;;;;;;5.61;100.00;102665.91;5112933;28;20019;-59
2023/12/15 01:03:11;;;;;;;25.48;16.40;;;;;;;5.65;100.00;102674.69;5112837;28;20035;-59
2023/12/15 01:05:37;;;;;;;32.42;15.98;;;;;;;5.67;100.00;102678.16;5094959;28;20098;-59
2023/12/15 01:08:02;;;;;;;29.17;16.15;;;;;;;5.65;100.00;102682.59;5112165;28;20022;-59
2023/12/15 01:10:28;;;;;;;26.80;14.68;;;;;;;5.67;100.00;102689.59;5094132;28;20038;-59
2023/12/15 01:12:53;;;;;;;26.17;15.77;;;;;;;5.70;100.00;102686.03;5093637;28;20466;-59
2023/12/15 01:15:19;;;;;;;19.77;11.52;;;;;;;5.70;100.00;102681.63;5112465;28;20027;-59
2023/12/15 01:17:44;;;;;;;30.77;16.67;;;;;;;5.66;100.00;102684.34;5112607;28;20086;-59
2023/12/15 01:20:10;;;;;;;28.33;17.13;;;;;;;5.71;100.00;102690.44;5094133;28;20027;-59
2023/12/15 01:22:36;;;;;;;25.80;12.98;;;;;;;5.73;100.00;102683.34;5094101;28;20342;-59
2023/12/15 01:25:01;;;;;;;25.80;17.08;;;;;;;5.79;100.00;102693.84;5093736;28;20234;-59
2023/12/15 01:27:27;;;;;;;29.20;17.02;;;;;;;5.72;100.00;102694.81;5111357;28;21820;-59
2023/12/15 01:29:54;;;;;;;31.73;16.45;;;;;;;5.66;100.00;102681.72;5112141;28;20098;-59
2023/12/15 01:32:20;;;;;;;32.67;16.00;;;;;;;5.71;100.00;102693.09;5112065;28;20539;-59
2023/12/15 01:34:45;;;;;;;27.95;16.52;;;;;;;5.76;100.00;102691.22;5112159;28;20028;-59
2023/12/15 01:37:13;;;;;;;26.40;15.45;;;;;;;5.86;100.00;102705.22;5112204;28;20583;-59
2023/12/15 01:39:38;;;;;;;22.58;15.80;;;;;;;5.75;100.00;102704.47;5108758;28;20020;-59
2023/12/15 01:42:04;;;;;;;22.05;13.65;;;;;;;5.73;100.00;102701.84;5112292;28;20023;-59
2023/12/15 01:44:33;;;;;;;25.15;14.73;;;;;;;5.66;100.00;102692.25;5112050;28;20025;-59
2023/12/15 01:47:01;;;;;;;22.87;12.97;;;;;;;5.77;100.00;102714.13;5112135;28;20028;-59
2023/12/15 01:49:28;;;;;;;29.35;15.68;;;;;;;5.70;100.00;102702.75;5109464;28;20277;-59
2023/12/15 01:51:56;;;;;;;21.55;15.25;;;;;;;5.76;100.00;102704.44;5093339;28;20106;-59
2023/12/15 01:54:21;;;;;;;23.05;13.63;;;;;;;5.76;100.00;102706.22;5110839;28;20019;-59
2023/12/15 01:56:47;;;;;;;26.33;15.63;;;;;;;5.74;100.00;102718.56;5111587;28;20028;-59
2023/12/15 01:59:12;;;;;;;28.35;14.77;;;;;;;5.70;100.00;102710.66;5111392;28;20031;-59
2023/12/15 02:01:38;;;;;;;26.40;15.02;;;;;;;5.75;100.00;102731.75;5111880;28;20020;-58
2023/12/15 02:04:04;;;;;;;25.23;15.65;;;;;;;5.75;100.00;102731.75;5093416;28;20019;-59
2023/12/15 02:06:30;;;;;;;24.92;13.88;;;;;;;5.77;100.00;102732.59;5073187;28;20032;-59
2023/12/15 02:08:55;;;;;;;23.13;14.50;;;;;;;5.73;100.00;102722.97;5092626;28;20374;-59
2023/12/15 02:11:21;;;;;;;27.40;15.70;;;;;;;5.78;100.00;102733.47;5111861;28;20027;-58
2023/12/15 02:13:46;;;;;;;27.10;16.08;;;;;;;5.79;100.00;102743.13;5111675;28;20028;-59
2023/12/15 02:16:11;;;;;;;22.15;13.20;;;;;;;5.81;100.00;102742.22;5111489;28;20066;-59
2023/12/15 02:18:37;;;;;;;23.48;14.23;;;;;;;5.78;100.00;102729.06;5111767;28;20027;-59
2023/12/15 02:21:02;;;;;;;26.30;16.33;;;;;;;5.81;100.00;102734.31;5093016;28;20020;-59
2023/12/15 02:23:28;;;;;;;26.27;14.82;;;;;;;5.80;100.00;102736.97;5110503;28;20023;-59
2023/12/15 02:25:53;;;;;;;20.80;12.82;;;;;;;5.86;100.00;102744.81;5093261;28;20359;-59
2023/12/15 02:28:18;;;;;;;25.60;15.27;;;;;;;5.81;100.00;102741.34;5092931;28;20027;-59
2023/12/15 02:30:46;;;;;;;24.23;15.52;;;;;;;5.79;100.00;102740.50;5110748;28;20131;-59
2023/12/15 02:33:12;;;;;;;30.67;16.83;;;;;;;5.88;100.00;102746.56;5111233;28;20560;-59
2023/12/15 02:35:39;;;;;;;25.27;15.77;;;;;;;5.82;100.00;102751.00;5111353;28;20055;-59
2023/12/15 02:38:07;;;;;;;29.15;16.20;;;;;;;5.82;100.00;102753.66;5092503;28;20020;-59
2023/12/15 02:40:34;;;;;;;27.48;15.50;;;;;;;5.79;100.00;102751.06;5108733;28;20016;-59
2023/12/15 02:43:00;;;;;;;28.83;16.77;;;;;;;5.86;100.00;102772.09;5111191;28;20019;-59
2023/12/15 02:45:25;;;;;;;22.70;14.90;;;;;;;5.89;100.00;102769.41;5110552;28;20378;-59
2023/12/15 02:47:53;;;;;;;27.52;15.48;;;;;;;5.87;100.00;102767.69;5093025;28;20492;-59
2023/12/15 02:50:19;;;;;;;29.48;16.58;;;;;;;5.88;100.00;102769.41;5073343;28;20024;-59
2023/12/15 02:52:44;;;;;;;30.38;16.50;;;;;;;5.89;100.00;102766.78;5110456;28;20019;-59
2023/12/15 02:55:12;;;;;;;30.10;16.83;;;;;;;5.83;100.00;102760.69;5092730;28;20106;-59
2023/12/15 02:57:38;;;;;;;28.38;16.38;;;;;;;5.86;100.00;102765.94;5110904;28;20054;-59
2023/12/15 03:00:04;;;;;;;29.73;16.52;;;;;;;5.91;100.00;102783.47;5092647;28;20466;-59
2023/12/15 03:02:29;;;;;;;37.25;17.15;;;;;;;5.85;100.00;102782.66;5092441;28;20023;-59
2023/12/15 03:04:57;;;;;;;30.23;16.88;;;;;;;5.91;100.00;102798.41;5091784;28;20546;-59
2023/12/15 03:07:23;;;;;;;32.08;16.45;;;;;;;5.92;100.00;102801.06;5092335;28;20126;-59
2023/12/15 03:09:48;;;;;;;29.92;17.63;;;;;;;5.92;100.00;102803.69;5110340;28;20160;-59
2023/12/15 03:12:13;;;;;;;35.53;18.20;;;;;;;5.96;100.00;102801.06;5110895;28;20027;-59
2023/12/15 03:14:39;;;;;;;30.98;17.90;;;;;;;5.92;100.00;102808.97;5111265;28;20027;-59
2023/12/15 03:17:04;;;;;;;32.08;17.70;;;;;;;5.94;100.00;102806.34;5111159;28;20035;-59
2023/12/15 03:19:30;;;;;;;38.42;19.17;;;;;;;5.95;100.00;102807.25;5092405;28;20042;-59
2023/12/15 03:21:55;;;;;;;34.28;17.25;;;;;;;5.95;100.00;102810.75;5108133;28;20051;-58
2023/12/15 03:24:20;;;;;;;35.83;19.13;;;;;;;5.91;100.00;102801.97;5092048;28;20050;-59
2023/12/15 03:26:46;;;;;;;33.20;16.70;;;;;;;5.97;100.00;102822.19;5110903;28;20032;-59
2023/12/15 03:29:11;;;;;;;41.17;18.63;;;;;;;6.00;100.00;102824.78;5110721;28;20059;-59
2023/12/15 03:31:37;;;;;;;27.17;16.50;;;;;;;5.94;100.00;102827.47;5110829;28;20133;-58
2023/12/15 03:34:02;;;;;;;31.63;15.82;;;;;;;5.98;100.00;102839.75;5092355;28;20031;-59
2023/12/15 03:36:28;;;;;;;35.00;18.90;;;;;;;5.99;100.00;102844.16;5092087;28;20025;-59
2023/12/15 03:38:53;;;;;;;34.70;14.77;;;;;;;6.02;100.00;102851.16;5110361;28;20100;-59
2023/12/15 03:41:18;;;;;;;39.22;18.00;;;;;;;6.00;100.00;102853.84;5110676;28;20024;-59
2023/12/15 03:43:44;;;;;;;32.08;15.63;;;;;;;6.01;100.00;102855.56;5092305;28;20050;-59
2023/12/15 03:46:09;;;;;;;39.47;18.67;;;;;;;6.03;100.00;102852.91;5110719;28;20027;-59
2023/12/15 03:48:35;;;;;;;42.38;18.85;;;;;;;6.03;100.00;102856.44;5110633;28;20160;-58
2023/12/15 03:51:00;;;;;;;40.17;18.27;;;;;;;5.99;100.00;102852.06;5092049;28;20062;-59
2023/12/15 03:53:25;;;;;;;54.63;21.48;;;;;;;6.05;100.00;102854.63;5091972;28;20024;-59
2023/12/15 03:55:51;;;;;;;42.42;19.85;;;;;;;6.06;100.00;102855.50;5110606;28;20030;-59
2023/12/15 03:58:16;;;;;;;47.10;18.90;;;;;;;6.07;100.00;102858.13;5095538;28;20084;-59
2023/12/15 04:00:42;;;;;;;46.50;21.02;;;;;;;6.05;100.00;102856.41;5114156;28;20510;-59
2023/12/15 04:03:07;;;;;;;44.58;20.15;;;;;;;6.09;100.00;102869.56;5095616;28;20034;-59
2023/12/15 04:05:35;;;;;;;44.33;20.73;;;;;;;6.09;100.00;102864.28;5095352;28;20137;-59
2023/12/15 04:08:00;;;;;;;44.88;20.73;;;;;;;6.11;100.00;102873.06;5113606;28;20023;-59
2023/12/15 04:10:25;;;;;;;51.47;21.60;;;;;;;6.12;100.00;102874.81;5113632;28;20103;-59
2023/12/15 04:12:51;;;;;;;47.03;21.35;;;;;;;6.12;100.00;102884.53;5113794;28;20591;-59
2023/12/15 04:15:19;;;;;;;38.50;19.35;;;;;;;6.11;100.00;102869.53;5113526;28;20062;-59
2023/12/15 04:17:47;;;;;;;59.63;23.83;;;;;;;6.11;100.00;102869.53;5113383;28;20051;-59
2023/12/15 04:20:13;;;;;;;49.90;21.50;;;;;;;6.14;100.00;102886.22;5113671;28;20085;-59
2023/12/15 04:22:38;;;;;;;53.38;23.23;;;;;;;6.12;100.00;102877.47;5095305;28;20023;-59
2023/12/15 04:25:04;;;;;;;50.88;21.67;;;;;;;6.16;100.00;102880.94;5113682;28;20084;-59
2023/12/15 04:27:30;;;;;;;54.90;22.42;;;;;;;6.16;100.00;102880.94;5113530;28;20444;-59
2023/12/15 04:29:56;;;;;;;57.13;24.13;;;;;;;6.20;100.00;102892.34;5113161;28;20445;-59
2023/12/15 04:32:21;;;;;;;57.25;23.27;;;;;;;6.22;100.00;102898.47;5094515;28;20079;-59
2023/12/15 04:34:47;;;;;;;58.83;22.15;;;;;;;6.20;100.00;102901.13;5112578;28;20104;-59
2023/12/15 04:37:12;;;;;;;59.03;22.73;;;;;;;6.20;100.00;102897.63;5094833;28;20051;-59
2023/12/15 04:39:38;;;;;;;52.70;23.50;;;;;;;6.18;100.00;102892.38;5113293;28;20481;-59
2023/12/15 04:42:03;;;;;;;58.88;23.90;;;;;;;6.26;100.00;102905.47;5113284;28;20020;-59
2023/12/15 04:44:29;;;;;;;56.33;23.30;;;;;;;6.18;100.00;102902.94;5112849;28;20443;-59
2023/12/15 04:46:55;;;;;;;56.17;25.58;;;;;;;6.26;100.00;102902.81;5095251;28;20030;-59
2023/12/15 04:49:21;;;;;;;71.07;25.30;;;;;;;6.26;100.00;102900.19;5094226;28;20024;-59
2023/12/15 04:51:47;;;;;;;63.85;25.55;;;;;;;6.20;100.00;102901.13;5113226;28;20024;-59
2023/12/15 04:54:12;;;;;;;60.90;25.58;;;;;;;6.25;100.00;102896.66;5112199;28;20023;-59
2023/12/15 04:56:37;;;;;;;53.80;23.05;;;;;;;6.27;100.00;102902.81;5113077;28;20115;-59
2023/12/15 04:59:03;;;;;;;59.58;24.55;;;;;;;6.27;100.00;102917.81;5112676;28;20027;-59
2023/12/15 05:01:28;;;;;;;51.63;23.33;;;;;;;6.23;100.00;102924.88;5112785;28;20038;-59
2023/12/15 05:03:53;;;;;;;42.58;19.33;;;;;;;6.26;100.00;102931.88;5094053;28;20084;-59
2023/12/15 05:06:25;;;;;;;60.13;23.48;;;;;;;6.29;100.00;102927.44;5094300;28;20390;-59
2023/12/15 05:08:51;;;;;;;62.10;23.60;;;;;;;6.29;100.00;102923.94;5093770;28;20023;-59
2023/12/15 05:11:22;;;;;;;56.40;23.70;;;;;;;6.27;100.00;102928.38;5112575;28;20024;-59
2023/12/15 05:13:47;;;;;;;;;;;;;;;6.34;100.00;102930.03;5094811;28;20072;-59
2023/12/15 05:16:12;;;;;;;61.00;23.30;;;;;;;6.31;100.00;102925.66;5112110;28;19915;-59
2023/12/15 05:18:38;;;;;;;52.67;24.25;;;;;;;6.28;100.00;102916.91;5111559;28;20076;-59
2023/12/15 05:21:06;;;;;;;57.88;24.30;;;;;;;6.37;100.00;102924.72;5112645;28;20026;-59
2023/12/15 05:23:31;;;;;;;65.65;26.35;;;;;;;6.36;100.00;102930.91;5112197;28;20517;-59
2023/12/15 05:25:57;;;;;;;66.13;24.95;;;;;;;6.33;100.00;102945.03;5094368;28;20059;-59
2023/12/15 05:28:22;;;;;;;77.22;26.02;;;;;;;6.34;100.00;102948.53;5094108;28;20114;-59
2023/12/15 05:30:47;;;;;;;68.03;26.08;;;;;;;6.35;100.00;102952.94;5093453;28;20508;-59
2023/12/15 05:33:13;;;;;;;68.85;26.20;;;;;;;6.35;100.00;102948.53;5093728;28;20024;-59
2023/12/15 05:35:39;;;;;;;65.63;25.85;;;;;;;6.31;100.00;102945.94;5112698;28;20469;-59
2023/12/15 05:38:04;;;;;;;70.78;27.27;;;;;;;6.43;100.00;102956.34;5093313;28;20110;-59
2023/12/15 05:40:30;;;;;;;61.47;26.05;;;;;;;6.39;100.00;102959.06;5112309;28;20470;-59
2023/12/15 05:42:55;;;;;;;60.30;25.73;;;;;;;6.39;100.00;102967.88;5112088;28;20023;-59
2023/12/15 05:45:21;;;;;;;65.72;27.27;;;;;;;6.41;100.00;102971.34;5111387;28;20494;-59
2023/12/15 05:47:47;;;;;;;73.10;28.80;;;;;;;6.41;100.00;102979.28;5112129;28;20024;-59
2023/12/15 05:50:15;;;;;;;79.55;29.60;;;;;;;6.41;100.00;102983.69;5111822;28;20062;-59
2023/12/15 05:52:41;;;;;;;69.97;29.73;;;;;;;6.42;100.00;102985.47;5093039;28;20389;-59
2023/12/15 05:55:07;;;;;;;78.35;28.42;;;;;;;6.43;100.00;102993.38;5112093;28;20028;-59
2023/12/15 05:57:32;;;;;;;73.88;29.35;;;;;;;6.48;100.00;102993.31;5093624;28;20031;-59
2023/12/15 05:59:57;;;;;;;73.65;28.80;;;;;;;6.46;100.00;102992.47;5111601;28;20046;-59
2023/12/15 06:02:25;;;;;;;76.22;29.15;;;;;;;6.47;100.00;102984.53;5111528;28;20098;-59
2023/12/15 06:04:51;;;;;;;74.45;26.90;;;;;;;6.47;100.00;102981.88;5111579;28;20470;-59
2023/12/15 06:07:17;;;;;;;79.50;29.05;;;;;;;6.47;100.00;102970.41;5111794;28;20038;-59
2023/12/15 06:09:42;;;;;;;77.05;29.10;;;;;;;6.43;100.00;102966.94;5092513;28;20023;-59
2023/12/15 06:12:09;;;;;;;71.47;28.13;;;;;;;6.49;100.00;102966.84;5111404;28;20057;-59
2023/12/15 06:14:37;;;;;;;71.47;28.33;;;;;;;6.48;100.00;102964.25;5093002;28;20130;-59
2023/12/15 06:17:06;;;;;;;74.60;30.02;;;;;;;6.49;100.00;102976.56;5111724;28;20394;-59
2023/12/15 06:19:32;;;;;;;75.18;29.10;;;;;;;6.54;100.00;102974.75;5108714;28;20023;-59
2023/12/15 06:21:58;;;;;;;81.90;32.15;;;;;;;6.53;100.00;102978.25;5093282;28;20024;-59
2023/12/15 06:24:23;;;;;;;73.55;31.23;;;;;;;6.49;100.00;102985.38;5110976;28;20038;-59
2023/12/15 06:26:48;;;;;;;81.10;30.33;;;;;;;6.51;100.00;102994.16;5111940;28;20038;-59
2023/12/15 06:29:14;;;;;;;83.55;32.05;;;;;;;6.54;100.00;102994.13;5092351;28;20065;-59
2023/12/15 06:31:45;;;;;;;68.57;27.10;;;;;;;6.56;100.00;102989.69;5111242;28;20054;-59
2023/12/15 06:34:10;;;;;;;84.20;31.90;;;;;;;6.57;100.00;102995.84;5110948;28;20089;-58
2023/12/15 06:36:36;;;;;;;84.85;32.70;;;;;;;6.56;100.00;103013.50;5111767;28;20023;-58
2023/12/15 06:39:03;;;;;;;84.38;31.05;;;;;;;6.56;100.00;103013.50;5110837;28;20042;-59
2023/12/15 06:41:29;;;;;;;94.85;31.60;;;;;;;6.60;100.00;103020.50;5111216;28;20024;-59
2023/12/15 06:43:55;;;;;;;84.43;33.33;;;;;;;6.60;100.00;103016.97;5110811;28;20046;-59
2023/12/15 06:46:21;;;;;;;86.90;33.03;;;;;;;6.60;100.00;103014.34;5111123;28;20491;-59
2023/12/15 06:48:46;;;;;;;80.35;31.73;;;;;;;6.60;100.00;103012.56;5110999;28;20031;-59
2023/12/15 06:51:12;;;;;;;81.57;31.33;;;;;;;6.59;100.00;103018.75;5110799;28;20035;-59
2023/12/15 06:53:37;;;;;;;84.50;33.55;;;;;;;6.59;100.00;103017.88;5092169;28;20534;-59
2023/12/15 06:56:03;;;;;;;81.97;31.25;;;;;;;6.62;100.00;103027.50;5092477;28;20050;-59
2023/12/15 06:58:31;;;;;;;82.05;33.90;;;;;;;6.64;100.00;103026.59;5110714;28;20100;-58
2023/12/15 07:00:56;;;;;;;78.72;31.30;;;;;;;6.68;100.00;103027.47;5092431;28;20106;-59
2023/12/15 07:03:22;;;;;;;80.88;32.25;;;;;;;6.66;100.00;103040.69;5110211;28;20541;-59
2023/12/15 07:05:47;;;;;;;79.85;31.40;;;;;;;6.67;100.00;103042.44;5110529;28;20153;-59
2023/12/15 07:08:12;;;;;;;87.88;33.55;;;;;;;6.67;100.00;103046.84;5091718;28;20051;-59
2023/12/15 07:10:38;;;;;;;84.85;33.83;;;;;;;6.67;100.00;103057.44;5110270;28;20031;-59
2023/12/15 07:13:03;;;;;;;85.28;33.08;;;;;;;6.68;100.00;103054.78;5110207;28;20023;-59
2023/12/15 07:15:29;;;;;;;80.30;30.60;;;;;;;6.68;100.00;103059.22;5111027;28;20027;-59
2023/12/15 07:17:55;;;;;;;66.57;24.20;;;;;;;6.67;100.00;103062.72;5092719;28;20024;-59
2023/12/15 07:20:21;;;;;;;84.07;31.70;;;;;;;6.67;100.00;103073.31;5092490;28;20028;-59
2023/12/15 07:22:47;;;;;;;87.15;35.38;;;;;;;6.66;100.00;103069.78;5110283;28;20015;-59
2023/12/15 07:25:12;;;;;;;86.88;33.65;;;;;;;6.67;100.00;103071.53;5110754;28;20124;-59
2023/12/15 07:27:37;;;;;;;88.38;33.35;;;;;;;6.64;100.00;103066.28;5109893;28;20027;-59
2023/12/15 07:30:03;;;;;;;83.13;33.03;;;;;;;6.69;100.00;103090.03;5092835;28;20112;-59
2023/12/15 07:32:28;;;;;;;78.85;30.63;;;;;;;6.69;100.00;103093.56;5114724;28;20032;-59
2023/12/15 07:34:54;;;;;;;80.18;31.80;;;;;;;6.70;100.00;103089.13;5114873;28;20034;-58
2023/12/15 07:37:19;;;;;;;68.35;28.48;;;;;;;6.74;100.00;103083.81;5115209;28;20428;-58
2023/12/15 07:39:45;;;;;;;77.95;28.65;;;;;;;6.65;100.00;103080.38;5114098;28;20019;-59
2023/12/15 07:42:11;;;;;;;79.22;30.20;;;;;;;6.72;100.00;103108.50;5078866;28;20023;-59
2023/12/15 07:44:37;;;;;;;75.75;29.95;;;;;;;6.72;100.00;103112.03;5096094;28;20478;-59
2023/12/15 07:47:03;;;;;;;87.55;29.92;;;;;;;6.75;100.00;103108.47;5114617;28;20050;-60
2023/12/15 07:49:30;;;;;;;74.22;28.55;;;;;;;6.69;100.00;103100.59;5096380;28;20024;-59
2023/12/15 07:51:56;;;;;;;86.45;30.67;;;;;;;6.72;100.00;103098.81;5096519;28;20043;-58
2023/12/15 07:54:21;;;;;;;84.50;30.73;;;;;;;6.73;100.00;103097.03;5094666;28;20272;-58
2023/12/15 07:56:47;;;;;;;83.65;32.85;;;;;;;6.73;100.00;103100.53;5096177;28;20093;-59
2023/12/15 07:59:12;;;;;;;76.78;30.85;;;;;;;6.74;100.00;103107.59;5095945;28;20028;-58
2023/12/15 08:01:40;;;;;;;83.25;31.17;;;;;;;6.69;100.00;103101.47;5114292;28;20058;-59
2023/12/15 08:04:06;;;;;;;92.80;33.05;;;;;;;6.72;100.00;103101.44;5114321;28;20356;-58
2023/12/15 08:06:31;;;;;;;81.60;32.28;;;;;;;6.71;100.00;103106.78;5095613;28;20027;-58
2023/12/15 08:08:57;;;;;;;84.60;30.80;;;;;;;6.77;100.00;103117.28;5113389;28;20047;-58
2023/12/15 08:11:25;;;;;;;78.43;29.77;;;;;;;6.78;100.00;103130.47;5113852;28;20085;-59
2023/12/15 08:13:50;;;;;;;85.32;31.27;;;;;;;6.75;100.00;103124.34;5114014;28;20019;-59
2023/12/15 08:16:18;;;;;;;73.13;30.92;;;;;;;6.80;100.00;103135.75;5095630;28;20027;-59
2023/12/15 08:18:43;;;;;;;79.22;30.25;;;;;;;6.78;100.00;103141.03;5114796;28;20492;-59
2023/12/15 08:21:10;;;;;;;80.55;30.30;;;;;;;6.79;100.00;103148.13;5114860;28;20016;-59
2023/12/15 08:23:35;;;;;;;61.50;24.98;;;;;;;6.87;100.00;103144.50;5114201;28;20027;-59
2023/12/15 08:26:01;;;;;;;75.15;26.60;;;;;;;6.87;100.00;103152.44;5116807;27;20026;-59
2023/12/15 08:28:26;;;;;;;88.78;31.80;;;;;;;6.81;100.00;103158.66;5113278;28;20019;-58
2023/12/15 08:30:51;;;;;;;81.47;30.15;;;;;;;6.81;100.00;103156.88;5113670;28;20421;-58
2023/12/15 08:33:17;;;;;;;76.15;27.92;;;;;;;6.90;100.00;103152.41;5113596;28;20035;-59
2023/12/15 08:35:42;;;;;;;81.40;29.77;;;;;;;6.82;100.00;103160.41;5113911;28;20377;-59
2023/12/15 08:38:08;;;;;;;64.82;25.02;;;;;;;6.85;100.00;103170.94;5113368;28;20478;-59
2023/12/15 08:40:34;;;;;;;80.65;28.85;;;;;;;6.86;100.00;103179.78;5095285;28;20355;-59
2023/12/15 08:42:59;;;;;;;83.05;28.80;;;;;;;6.77;100.00;103170.19;5094601;28;20030;-58
2023/12/15 08:45:25;;;;;;;76.78;31.30;;;;;;;6.88;100.00;103194.72;5113476;28;20035;-58
2023/12/15 08:47:51;;;;;;;67.82;28.52;;;;;;;6.92;100.00;103198.25;5095417;28;20393;-58
2023/12/15 08:50:16;;;;;;;83.75;29.48;;;;;;;6.94;100.00;103199.09;5113586;28;20098;-58
2023/12/15 08:52:43;;;;;;;74.68;28.25;;;;;;;6.97;100.00;103212.28;5094528;28;20062;-59
2023/12/15 08:55:09;;;;;;;69.80;28.15;;;;;;;6.98;100.00;103219.34;5113364;28;20468;-58
2023/12/15 08:57:34;;;;;;;74.00;28.92;;;;;;;6.98;100.00;103219.34;5113476;28;20038;-58
2023/12/15 09:00:00;;;;;;;73.55;26.23;;;;;;;6.94;100.00;103209.66;5113520;28;20019;-58
2023/12/15 09:02:26;;;;;;;71.53;28.13;;;;;;;7.02;100.00;103213.13;5113215;28;20458;-58
2023/12/15 09:04:51;;;;;;;64.63;26.58;;;;;;;6.97;100.00;103210.53;5113491;28;20449;-58
2023/12/15 09:07:17;;;;;;;63.35;26.02;;;;;;;7.03;100.00;103217.53;5094714;28;20031;-58
2023/12/15 09:09:43;;;;;;;67.40;26.38;;;;;;;7.04;100.00;103222.78;5112434;28;20027;-58
2023/12/15 09:12:09;;;;;;;67.47;27.25;;;;;;;7.02;100.00;103208.69;5113227;28;20060;-58
2023/12/15 09:14:35;;;;;;;63.22;27.00;;;;;;;7.07;100.00;103219.25;5112934;27;20027;-58
2023/12/15 09:17:01;;;;;;;67.63;27.98;;;;;;;7.09;100.00;103220.13;5094418;28;20034;-58
2023/12/15 09:19:27;;;;;;;67.78;26.38;;;;;;;7.08;100.00;103223.63;5094270;28;20034;-58
2023/12/15 09:21:52;;;;;;;66.15;26.50;;;;;;;7.10;100.00;103229.78;5113043;28;20019;-58
2023/12/15 09:24:18;;;;;;;65.78;27.23;;;;;;;7.12;100.00;103238.59;5112450;28;20069;-65
2023/12/15 09:26:47;;;;;;;56.83;25.60;;;;;;;7.12;100.00;103246.53;5113417;28;20490;-58
2023/12/15 09:29:13;;;;;;;63.03;26.40;;;;;;;7.17;100.00;103247.34;5113201;28;20028;-59
2023/12/15 09:31:39;;;;;;;58.90;23.38;;;;;;;7.17;100.00;103249.13;5113461;28;20478;-58
2023/12/15 09:34:05;;;;;;;60.40;26.23;;;;;;;7.18;100.00;103256.19;5094887;28;20023;-58
2023/12/15 09:36:30;;;;;;;62.42;27.23;;;;;;;7.18;100.00;103262.38;5094790;28;20023;-58
2023/12/15 09:38:58;;;;;;;70.35;29.23;;;;;;;7.18;100.00;103261.50;5112558;28;20126;-58
2023/12/15 09:41:23;;;;;;;75.15;27.15;;;;;;;7.20;100.00;103280.84;5113146;28;20026;-58
2023/12/15 09:43:50;;;;;;;72.05;27.10;;;;;;;7.15;100.00;103277.41;5095076;28;20106;-58
2023/12/15 09:46:16;;;;;;;59.53;24.00;;;;;;;7.12;100.00;103280.03;5094778;28;20031;-58
2023/12/15 09:48:41;;;;;;;58.53;23.83;;;;;;;7.19;100.00;103290.56;5113003;28;20024;-58
2023/12/15 09:51:12;;;;;;;55.97;24.60;;;;;;;7.20;100.00;103296.72;5112973;28;20026;-58
2023/12/15 09:53:38;;;;;;;61.20;22.52;;;;;;;7.19;100.00;103306.44;5111819;28;20105;-58
2023/12/15 09:56:05;;;;;;;51.10;23.95;;;;;;;7.12;100.00;103299.47;5113121;28;20435;-58
2023/12/15 09:58:31;;;;;;;57.92;24.05;;;;;;;7.18;100.00;103309.13;5094616;28;20023;-58
2023/12/15 10:00:57;;;;;;;57.33;24.80;;;;;;;7.20;100.00;103315.25;5094642;28;20064;-58
2023/12/15 10:03:23;;;;;;;59.90;24.02;;;;;;;7.20;100.00;103324.06;5112517;28;20542;-58
2023/12/15 10:05:49;;;;;;;53.92;22.20;;;;;;;7.23;100.00;103304.66;5112754;28;20488;-58
2023/12/15 10:08:14;;;;;;;55.53;23.80;;;;;;;7.13;100.00;103309.16;5112031;28;20051;-58
2023/12/15 10:10:39;;;;;;;58.08;23.58;;;;;;;7.26;100.00;103333.72;5094538;28;20054;-58
2023/12/15 10:13:05;;;;;;;53.70;24.65;;;;;;;7.23;100.00;103328.47;5112653;28;20019;-58
2023/12/15 10:15:31;;;;;;;50.03;22.50;;;;;;;7.24;100.00;103340.84;5113043;28;20093;-58
2023/12/15 10:17:57;;;;;;;61.10;21.83;;;;;;;7.25;100.00;103342.56;5111916;28;20031;-58
2023/12/15 10:20:25;;;;;;;55.00;22.88;;;;;;;7.18;100.00;103333.81;5093247;28;20028;-58
2023/12/15 10:23:02;;;;;;;50.90;21.25;;;;;;;7.25;100.00;103343.44;5092947;28;20648;-58
2023/12/15 10:25:27;;;;;;;54.28;22.70;;;;;;;7.25;100.00;103346.09;5110647;28;20024;-58
2023/12/15 10:27:52;;;;;;;54.05;21.52;;;;;;;7.32;100.00;103357.50;5111471;28;20030;-58
2023/12/15 10:30:19;;;;;;;46.20;21.38;;;;;;;7.25;100.00;103353.16;5111623;28;20024;-58
2023/12/15 10:32:45;;;;;;;54.03;22.70;;;;;;;7.33;100.00;103363.69;5110932;28;20526;-58
2023/12/15 10:35:12;;;;;;;46.97;21.13;;;;;;;7.38;100.00;103365.41;5111421;28;20051;-58
2023/12/15 10:37:37;;;;;;;49.47;20.70;;;;;;;7.37;100.00;103379.53;5110753;28;20478;-58
2023/12/15 10:40:04;;;;;;;52.45;21.95;;;;;;;7.39;100.00;103387.47;5111440;28;20026;-58
2023/12/15 10:42:30;;;;;;;54.42;22.88;;;;;;;7.36;100.00;103374.25;5111163;28;20019;-58
2023/12/15 10:45:03;;;;;;;49.42;21.27;;;;;;;7.41;100.00;103367.13;5111470;28;20104;-58
2023/12/15 10:47:30;;;;;;;44.30;20.65;;;;;;;7.47;100.00;103390.91;5091930;28;20024;-58
2023/12/15 10:49:57;;;;;;;53.47;21.08;;;;;;;7.40;100.00;103383.91;5109400;28;20031;-58
2023/12/15 10:52:24;;;;;;;44.72;21.10;;;;;;;7.45;100.00;103388.28;5089077;28;20389;-58
2023/12/15 10:54:51;;;;;;;43.17;19.40;;;;;;;7.49;100.00;103389.13;5110931;28;20461;-58
2023/12/15 10:57:17;;;;;;;48.40;20.88;;;;;;;7.47;100.00;103397.09;5111082;28;20108;-58
2023/12/15 10:59:43;;;;;;;43.20;20.13;;;;;;;7.48;100.00;103395.31;5093021;28;20051;-58
2023/12/15 11:02:11;;;;;;;46.47;19.48;;;;;;;7.52;100.00;103402.34;5111340;28;20482;-58
2023/12/15 11:04:37;;;;;;;41.13;19.38;;;;;;;7.42;100.00;103390.09;5090403;28;20019;-58